createdAt,value
2022-11-20T00:01:51.687Z,54326.25
2022-11-20T00:04:20.518Z,54336.19
2022-11-20T00:06:49.611Z,54342.16
2022-11-20T00:09:20.614Z,54354.06
2022-11-20T00:11:49.378Z,54373.97
2022-11-20T00:14:18.098Z,54330.22
2022-11-20T00:16:47.344Z,54377.94
2022-11-20T00:19:19.035Z,54371.97
2022-11-20T00:21:48.634Z,54318.28
2022-11-20T00:24:17.181Z,54371.97
2022-11-20T00:26:47.273Z,54401.81
2022-11-20T00:29:16.120Z,54405.78
2022-11-20T00:31:45.217Z,54389.88
2022-11-20T00:34:14.045Z,54409.75
2022-11-20T00:36:43.232Z,54409.75
2022-11-20T00:39:12.227Z,54405.78
2022-11-20T00:41:40.800Z,54399.81
2022-11-20T00:44:11.018Z,54397.81
2022-11-20T00:46:40.025Z,54393.84
2022-11-20T00:49:08.783Z,54395.84
2022-11-20T00:51:38.119Z,54425.66
2022-11-20T00:54:06.688Z,54405.78
2022-11-20T00:56:36.055Z,54419.69
2022-11-20T00:59:05.178Z,54401.81
2022-11-20T01:01:35.727Z,54427.66
2022-11-20T01:04:05.335Z,54423.69
2022-11-20T01:06:35.623Z,54429.66
2022-11-20T01:09:07.670Z,54409.75
2022-11-20T01:11:38.674Z,54411.75
2022-11-20T01:14:11.970Z,54435.59
2022-11-20T01:16:44.209Z,54427.66
2022-11-20T01:19:18.230Z,54421.69
2022-11-20T01:21:49.864Z,54441.56
2022-11-20T01:24:21.104Z,54415.72
2022-11-20T01:26:51.433Z,54393.84
2022-11-20T01:29:24.300Z,54475.38
2022-11-20T01:31:55.597Z,54425.66
2022-11-20T01:34:25.226Z,54465.44
2022-11-20T01:36:55.220Z,54463.44
2022-11-20T01:39:26.115Z,54419.69
2022-11-20T01:42:14.088Z,54445.56
2022-11-20T01:44:52.211Z,54465.44
2022-11-20T01:47:34.376Z,54461.47
2022-11-20T01:50:08.561Z,54445.56
2022-11-20T01:52:45.133Z,54465.44
2022-11-20T01:55:17.848Z,54499.25
2022-11-20T01:57:48.043Z,54477.38
2022-11-20T02:00:20.943Z,54477.38
2022-11-20T02:02:56.165Z,54481.34
2022-11-20T02:05:29.817Z,54453.50
2022-11-20T02:08:00.223Z,54507.19
2022-11-20T02:10:30.520Z,54533.06
2022-11-20T02:13:16.817Z,54552.94
2022-11-20T02:15:46.266Z,54556.91
2022-11-20T02:18:17.981Z,54564.88
2022-11-20T02:20:48.286Z,54564.88
2022-11-20T02:23:25.281Z,54604.66
2022-11-20T02:25:56.329Z,54552.94
2022-11-20T02:28:25.656Z,54562.88
2022-11-20T02:30:54.254Z,54580.78
2022-11-20T02:33:23.207Z,54570.84
2022-11-20T02:35:52.764Z,54608.63
2022-11-20T02:38:22.472Z,54648.41
2022-11-20T02:40:55.295Z,54632.50
2022-11-20T02:43:26.105Z,54632.50
2022-11-20T02:45:55.102Z,54630.50
2022-11-20T02:48:25.238Z,54652.38
2022-11-20T02:50:53.987Z,54644.41
2022-11-20T02:53:22.586Z,54642.44
2022-11-20T02:55:52.933Z,54692.16
2022-11-20T02:58:21.719Z,54735.91
2022-11-20T03:00:51.956Z,54771.69
2022-11-20T03:03:20.417Z,54791.59
2022-11-20T03:05:48.817Z,54821.41
2022-11-20T03:08:17.457Z,54841.31
2022-11-20T03:10:46.241Z,54871.16
2022-11-20T03:13:15.158Z,54932.78
2022-11-20T03:15:43.934Z,55004.41
2022-11-20T03:18:15.465Z,55014.34
2022-11-20T03:20:44.052Z,54998.44
2022-11-20T03:23:13.352Z,54974.56
2022-11-20T03:25:41.877Z,55046.16
2022-11-20T03:28:10.556Z,55197.34
2022-11-20T03:30:39.413Z,55229.16
2022-11-20T03:33:08.041Z,55348.50
2022-11-20T03:35:38.526Z,55330.59
2022-11-20T03:38:07.508Z,55348.50
2022-11-20T03:40:37.865Z,55316.69
2022-11-20T03:43:07.232Z,55336.56
2022-11-20T03:45:35.994Z,55537.47
2022-11-20T03:48:04.811Z,55567.31
2022-11-20T03:50:33.452Z,55515.59
2022-11-20T03:53:03.511Z,55312.69
2022-11-20T03:55:32.467Z,55400.22
2022-11-20T03:58:01.646Z,55426.09
2022-11-20T04:00:31.749Z,55533.50
2022-11-20T04:03:01.072Z,55678.72
2022-11-20T04:05:30.011Z,55696.63
2022-11-20T04:07:58.537Z,55808.03
2022-11-20T04:10:28.364Z,55829.91
2022-11-20T04:13:00.192Z,55913.47
2022-11-20T04:15:30.769Z,55913.47
2022-11-20T04:18:01.361Z,55989.06
2022-11-20T04:20:33.189Z,56092.53
2022-11-20T04:23:01.907Z,56156.19
2022-11-20T04:25:32.017Z,55971.16
2022-11-20T04:28:00.686Z,55788.13
2022-11-20T04:30:28.990Z,55919.44
2022-11-20T04:32:58.151Z,55905.50
2022-11-20T04:35:26.751Z,56074.63
2022-11-20T04:37:55.672Z,55770.22
2022-11-20T04:40:24.430Z,55915.47
2022-11-20T04:42:55.058Z,55819.97
2022-11-20T04:45:25.466Z,55806.03
2022-11-20T04:47:54.034Z,55933.38
2022-11-20T04:50:23.474Z,56096.50
2022-11-20T04:52:52.233Z,56092.53
2022-11-20T04:55:21.052Z,56172.13
2022-11-20T04:57:52.649Z,56116.41
2022-11-20T05:00:23.851Z,55925.41
2022-11-20T05:02:53.288Z,56209.91
2022-11-20T05:05:21.829Z,56299.44
2022-11-20T05:07:50.332Z,56184.06
2022-11-20T05:10:20.407Z,56394.97
2022-11-20T05:12:51.440Z,56542.19
2022-11-20T05:15:24.321Z,56237.78
2022-11-20T05:17:54.382Z,55989.06
2022-11-20T05:20:23.503Z,56303.44
2022-11-20T05:22:52.899Z,56436.75
2022-11-20T05:25:21.339Z,56568.06
2022-11-20T05:27:50.385Z,56625.78
2022-11-20T05:30:19.229Z,56396.94
2022-11-20T05:32:49.102Z,56460.63
2022-11-20T05:35:19.753Z,56170.13
2022-11-20T05:37:48.364Z,56442.72
2022-11-20T05:40:17.046Z,55889.59
2022-11-20T05:42:47.713Z,55997.03
2022-11-20T05:45:16.876Z,56424.81
2022-11-20T05:47:45.390Z,56643.69
2022-11-20T05:50:17.421Z,56597.91
2022-11-20T05:52:45.999Z,56655.63
2022-11-20T05:55:14.484Z,56866.56
2022-11-20T05:57:43.372Z,56779.00
2022-11-20T06:00:13.903Z,56763.09
2022-11-20T06:02:42.944Z,56737.22
2022-11-20T06:05:11.507Z,56597.91
2022-11-20T06:07:41.628Z,56749.16
2022-11-20T06:10:11.306Z,56205.94
2022-11-20T06:12:40.326Z,56478.53
2022-11-20T06:15:10.395Z,56474.53
2022-11-20T06:17:40.049Z,56486.50
2022-11-20T06:20:10.207Z,56820.78
2022-11-20T06:22:39.105Z,56788.94
2022-11-20T06:25:10.182Z,56721.28
2022-11-20T06:27:39.229Z,56749.16
2022-11-20T06:30:09.089Z,56486.50
2022-11-20T06:32:38.480Z,56593.94
2022-11-20T06:35:08.165Z,56486.50
2022-11-20T06:37:36.855Z,56215.88
2022-11-20T06:40:06.710Z,56396.94
2022-11-20T06:42:37.341Z,56484.50
2022-11-20T06:45:06.371Z,56645.69
2022-11-20T06:47:35.275Z,56954.13
2022-11-20T06:50:04.150Z,56948.16
2022-11-20T06:52:32.941Z,56964.06
2022-11-20T06:55:02.103Z,57129.25
2022-11-20T06:57:31.984Z,56695.41
2022-11-20T07:00:02.251Z,57107.38
2022-11-20T07:02:32.503Z,57332.25
2022-11-20T07:05:01.114Z,57529.31
2022-11-20T07:07:30.116Z,57545.22
2022-11-20T07:09:58.812Z,57501.44
2022-11-20T07:12:27.985Z,57823.91
2022-11-20T07:14:56.821Z,58134.44
2022-11-20T07:17:27.095Z,58650.09
2022-11-20T07:19:56.818Z,58849.22
2022-11-20T07:22:25.601Z,59078.22
2022-11-20T07:24:54.832Z,58902.97
2022-11-20T07:27:25.078Z,58564.50
2022-11-20T07:30:02.050Z,58514.72
2022-11-20T07:32:35.486Z,58514.72
2022-11-20T07:35:05.371Z,58564.50
2022-11-20T07:37:37.086Z,59082.19
2022-11-20T07:40:07.357Z,59024.44
2022-11-20T07:42:36.339Z,59536.25
2022-11-20T07:45:05.873Z,58735.72
2022-11-20T07:47:39.115Z,59016.47
2022-11-20T07:50:09.028Z,58930.84
2022-11-20T07:52:37.684Z,58918.91
2022-11-20T07:55:07.455Z,58588.38
2022-11-20T07:57:36.341Z,58437.06
2022-11-20T08:00:06.811Z,59157.88
2022-11-20T08:02:42.839Z,59958.50
2022-11-20T08:05:12.452Z,59767.28
2022-11-20T08:07:41.975Z,59590.03
2022-11-20T08:10:13.106Z,59599.97
2022-11-20T08:13:04.557Z,60080.00
2022-11-20T08:15:34.376Z,60759.31
2022-11-20T08:18:29.876Z,60974.50
2022-11-20T08:20:56.674Z,60241.34
2022-11-20T08:23:25.732Z,60105.91
2022-11-20T08:25:54.453Z,59974.44
2022-11-20T08:28:23.445Z,60370.84
2022-11-20T08:30:52.573Z,60362.88
2022-11-20T08:33:22.649Z,60319.03
2022-11-20T08:35:51.248Z,60209.47
2022-11-20T08:38:20.426Z,60181.59
2022-11-20T08:41:09.322Z,60350.91
2022-11-20T08:43:39.817Z,60030.22
2022-11-20T08:46:08.411Z,59468.53
2022-11-20T08:48:38.595Z,59719.47
2022-11-20T08:51:07.614Z,59745.38
2022-11-20T08:53:36.601Z,60010.28
2022-11-20T08:56:05.651Z,59225.56
2022-11-20T08:58:54.893Z,58942.81
2022-11-20T09:01:25.567Z,59341.09
2022-11-20T09:03:58.502Z,59833.00
2022-11-20T09:06:27.429Z,59751.34
2022-11-20T09:08:57.383Z,59303.25
2022-11-20T09:11:28.479Z,58994.56
2022-11-20T09:13:57.128Z,59237.53
2022-11-20T09:16:26.325Z,59249.47
2022-11-20T09:19:28.092Z,58745.69
2022-11-20T09:21:46.791Z,57708.44
2022-11-20T09:24:15.761Z,57276.53
2022-11-20T09:26:44.498Z,58470.91
2022-11-20T09:29:13.137Z,58130.47
2022-11-20T09:31:41.990Z,59004.53
2022-11-20T09:34:16.654Z,59532.28
2022-11-20T09:36:45.255Z,59016.47
2022-11-20T09:39:13.881Z,59217.63
2022-11-20T09:41:58.048Z,60739.41
2022-11-20T09:44:41.142Z,60370.84
2022-11-20T09:47:17.297Z,58895.00
2022-11-20T09:50:05.303Z,59779.25
2022-11-20T09:52:42.522Z,59311.22
2022-11-20T09:55:14.766Z,58936.84
2022-11-20T09:57:50.895Z,58679.97
2022-11-20T10:00:22.701Z,58994.56
2022-11-20T10:02:58.114Z,58632.19
2022-11-20T10:05:33.973Z,57744.28
2022-11-20T10:08:15.059Z,58516.72
2022-11-20T10:10:52.488Z,58196.16
2022-11-20T10:13:42.532Z,58003.06
2022-11-20T10:16:22.586Z,57612.91
2022-11-20T10:19:05.033Z,58174.28
2022-11-20T10:21:49.690Z,57489.50
2022-11-20T10:24:48.929Z,57479.56
2022-11-20T10:27:33.482Z,58096.63
2022-11-20T10:30:06.051Z,58118.53
2022-11-20T10:32:39.919Z,58214.09
2022-11-20T10:35:25.453Z,58112.56
2022-11-20T10:38:00.413Z,58154.38
2022-11-20T10:40:37.259Z,58279.78
2022-11-20T10:43:13.658Z,59149.91
2022-11-20T10:45:52.110Z,59078.22
2022-11-20T10:48:24.852Z,58580.41
2022-11-20T10:51:15.382Z,58938.81
2022-11-20T10:53:56.340Z,58930.84
2022-11-20T10:56:33.623Z,59116.06
2022-11-20T10:59:27.793Z,59006.53
2022-11-20T11:01:57.023Z,59233.53
2022-11-20T11:04:41.851Z,59106.09
2022-11-20T11:07:18.415Z,58982.63
2022-11-20T11:09:51.658Z,58912.94
2022-11-20T11:12:22.019Z,58068.75
2022-11-20T11:14:53.066Z,58116.53
2022-11-20T11:17:29.850Z,58944.81
2022-11-20T11:20:03.493Z,58887.06
2022-11-20T11:22:34.456Z,59506.38
2022-11-20T11:25:14.492Z,59576.09
2022-11-20T11:27:48.911Z,58811.38
2022-11-20T11:30:19.924Z,59108.09
2022-11-20T11:32:48.896Z,58534.63
2022-11-20T11:35:27.725Z,58687.94
2022-11-20T11:38:04.727Z,58998.56
2022-11-20T11:40:37.563Z,58922.91
2022-11-20T11:43:33.884Z,58377.34
2022-11-20T11:46:10.478Z,58729.75
2022-11-20T11:48:39.064Z,58520.69
2022-11-20T11:51:10.970Z,58902.97
2022-11-20T11:53:44.614Z,58721.78
2022-11-20T11:56:17.280Z,58405.22
2022-11-20T11:58:50.803Z,58775.53
2022-11-20T12:01:30.681Z,58443.03
2022-11-20T12:04:07.067Z,57648.75
2022-11-20T12:06:39.127Z,57469.59
2022-11-20T12:09:12.897Z,57083.47
2022-11-20T12:11:49.191Z,57388.00
2022-11-20T12:14:25.029Z,57300.41
2022-11-20T12:16:56.917Z,57338.22
2022-11-20T12:19:26.556Z,57577.09
2022-11-20T12:22:05.266Z,57368.09
2022-11-20T12:24:56.014Z,57491.50
2022-11-20T12:27:58.204Z,57503.44
2022-11-20T12:30:27.682Z,57539.25
2022-11-20T12:33:19.709Z,57531.31
2022-11-20T12:36:09.054Z,57593.00
2022-11-20T12:38:51.991Z,57706.47
2022-11-20T12:41:56.140Z,57786.09
2022-11-20T12:45:13.317Z,57784.09
2022-11-20T12:48:01.552Z,57843.81
2022-11-20T12:51:00.297Z,58148.38
2022-11-20T12:53:36.212Z,58118.53
2022-11-20T12:56:14.738Z,58257.88
2022-11-20T12:58:54.202Z,58443.03
2022-11-20T13:01:43.913Z,58389.28
2022-11-20T13:04:30.082Z,58781.53
2022-11-20T13:07:00.450Z,58741.69
2022-11-20T13:09:29.996Z,59185.75
2022-11-20T13:12:06.642Z,59839.00
2022-11-20T13:14:40.866Z,59751.34
2022-11-20T13:17:19.166Z,59890.78
2022-11-20T13:19:53.488Z,59928.63
2022-11-20T13:22:27.971Z,60223.44
2022-11-20T13:25:04.970Z,60725.44
2022-11-20T13:27:35.023Z,61201.63
2022-11-20T13:30:18.354Z,61624.09
2022-11-20T13:33:01.337Z,62281.78
2022-11-20T13:35:34.254Z,62965.53
2022-11-20T13:38:09.162Z,63509.81
2022-11-20T13:40:40.450Z,63749.09
2022-11-20T13:43:25.204Z,64165.91
2022-11-20T13:46:01.560Z,64239.69
2022-11-20T13:48:35.783Z,64385.28
2022-11-20T13:51:26.950Z,64742.31
2022-11-20T13:54:14.399Z,66053.03
2022-11-20T13:56:57.714Z,66729.56
2022-11-20T13:59:43.189Z,67442.13
2022-11-20T14:02:15.346Z,68029.06
2022-11-20T14:04:50.523Z,69097.41
2022-11-20T14:07:22.074Z,69674.66
2022-11-20T14:09:55.672Z,69357.06
2022-11-20T14:12:26.613Z,70072.19
2022-11-20T14:14:56.800Z,70381.84
2022-11-20T14:17:33.753Z,71954.59
2022-11-20T14:20:06.894Z,72210.47
2022-11-20T14:22:36.110Z,72210.47
2022-11-20T14:25:09.061Z,72722.25
2022-11-20T14:27:41.069Z,73490.06
2022-11-20T14:30:17.185Z,74514.09
2022-11-20T14:32:47.663Z,75026.22
2022-11-20T14:35:22.896Z,74514.09
2022-11-20T14:37:51.734Z,75282.31
2022-11-20T14:40:31.830Z,75794.56
2022-11-20T14:43:02.190Z,76306.91
2022-11-20T14:45:31.266Z,76563.09
2022-11-20T14:48:02.654Z,76819.28
2022-11-20T14:50:34.414Z,76819.28
2022-11-20T14:53:03.631Z,77844.31
2022-11-20T14:55:34.486Z,78100.63
2022-11-20T14:58:05.182Z,78613.28
2022-11-20T15:00:36.715Z,77844.31
2022-11-20T15:03:17.343Z,78869.66
2022-11-20T15:05:52.723Z,79638.84
2022-11-20T15:08:21.346Z,80921.25
2022-11-20T15:10:52.875Z,80921.25
2022-11-20T15:13:28.772Z,81177.78
2022-11-20T15:15:59.095Z,81947.50
2022-11-20T15:18:32.289Z,82717.38
2022-11-20T15:21:06.243Z,83744.16
2022-11-20T15:23:35.329Z,84514.44
2022-11-20T15:26:04.265Z,84771.25
2022-11-20T15:28:35.667Z,85541.78
2022-11-20T15:31:06.142Z,85798.66
2022-11-20T15:33:36.130Z,86826.34
2022-11-20T15:36:06.857Z,87854.38
2022-11-20T15:38:35.341Z,88368.50
2022-11-20T15:41:04.630Z,88882.69
2022-11-20T15:43:34.280Z,89139.81
2022-11-20T15:46:06.252Z,89911.31
2022-11-20T15:48:44.774Z,90940.22
2022-11-20T15:51:32.767Z,91712.13
2022-11-20T15:54:12.026Z,92484.19
2022-11-20T15:56:41.019Z,93256.44
2022-11-20T15:59:10.200Z,93771.38
2022-11-20T16:01:40.128Z,94286.38
2022-11-20T16:04:12.685Z,94801.44
2022-11-20T16:06:43.751Z,95574.19
2022-11-20T16:09:14.788Z,96089.47
2022-11-20T16:11:44.049Z,96347.13
2022-11-20T16:14:31.235Z,97120.22
2022-11-20T16:17:02.650Z,97635.72
2022-11-20T16:19:32.118Z,98409.13
2022-11-20T16:22:04.045Z,98666.94
2022-11-20T16:24:38.440Z,98924.81
2022-11-20T16:27:24.660Z,99182.69
2022-11-20T16:30:01.328Z,99182.69
2022-11-20T16:32:34.431Z,99698.47
2022-11-20T16:38:45.527Z,100730.31
2022-11-20T16:42:01.986Z,101246.34
2022-11-20T16:45:10.078Z,101762.47
2022-11-20T16:48:18.726Z,102020.53
2022-11-20T16:51:26.517Z,102536.75
2022-11-20T18:37:14.027Z,112618.41
2022-11-20T18:40:10.047Z,112618.41
2022-11-20T18:43:02.788Z,112359.53
2022-11-20T18:45:33.346Z,111841.88
2022-11-20T18:48:03.321Z,111324.28
2022-11-20T18:50:40.416Z,110806.75
2022-11-20T18:57:00.948Z,109513.28
2022-11-20T19:03:52.795Z,107444.69
2022-11-20T19:07:00.312Z,106669.31
2022-11-20T19:09:32.677Z,106152.47
2022-11-20T19:12:04.124Z,105119.03
2022-11-20T19:14:38.800Z,104085.91
2022-11-20T19:17:11.271Z,103053.06
2022-11-20T19:19:43.709Z,102278.66
2022-11-20T19:22:21.260Z,101762.47
2022-11-20T19:25:03.233Z,101246.34
2022-11-20T19:27:53.404Z,100730.31
2022-11-20T19:30:23.979Z,100472.31
2022-11-20T19:32:55.781Z,100472.31
2022-11-20T19:35:42.534Z,99698.47
2022-11-20T19:38:22.568Z,99440.56
2022-11-20T19:41:03.535Z,99182.69
2022-11-20T19:43:47.757Z,98151.31
2022-11-20T19:46:22.511Z,96604.81
2022-11-20T19:49:01.875Z,96089.47
2022-11-20T19:51:52.088Z,95831.81
2022-11-20T19:54:30.908Z,95574.19
2022-11-20T19:57:07.471Z,95059.00
2022-11-20T19:59:44.140Z,94543.91
2022-11-20T20:02:15.209Z,94028.84
2022-11-20T20:04:47.337Z,94028.84
2022-11-20T20:07:20.145Z,93513.91
2022-11-20T20:09:54.994Z,93256.44
2022-11-20T20:12:24.191Z,92741.59
2022-11-20T20:14:54.857Z,91197.50
2022-11-20T20:17:23.952Z,90168.50
2022-11-20T20:19:55.408Z,90168.50
2022-11-20T20:22:26.045Z,90168.50
2022-11-20T20:24:57.413Z,89911.31
2022-11-20T20:27:27.310Z,89654.13
2022-11-20T20:29:56.443Z,89139.81
2022-11-20T20:32:27.316Z,88625.56
2022-11-20T20:34:56.561Z,88625.56
2022-11-20T20:37:26.145Z,87854.38
2022-11-20T20:39:56.577Z,88625.56
2022-11-20T20:42:26.566Z,87597.34
2022-11-20T20:45:11.490Z,87597.34
2022-11-20T20:47:42.711Z,87340.31
2022-11-20T20:50:14.266Z,86055.56
2022-11-20T20:52:45.772Z,85541.78
2022-11-20T20:55:16.687Z,84771.25
2022-11-20T20:57:45.932Z,85284.91
2022-11-20T21:00:15.371Z,85798.66
2022-11-20T21:02:44.591Z,86055.56
2022-11-20T21:05:13.227Z,86312.47
2022-11-20T21:08:02.336Z,85284.91
2022-11-20T21:10:34.802Z,85541.78
2022-11-20T21:13:04.333Z,85284.91
2022-11-20T21:15:33.119Z,86312.47
2022-11-20T21:18:01.690Z,86312.47
2022-11-20T21:20:48.137Z,86569.41
2022-11-20T21:23:17.044Z,87083.34
2022-11-20T21:25:47.614Z,87597.34
2022-11-20T21:28:18.394Z,87854.38
2022-11-20T21:30:48.008Z,87854.38
2022-11-20T21:33:17.467Z,88368.50
2022-11-20T21:35:47.013Z,88882.69
2022-11-20T21:38:16.863Z,89396.97
2022-11-20T21:40:47.272Z,90425.72
2022-11-20T21:43:16.626Z,90940.22
2022-11-20T21:45:45.460Z,91454.81
2022-11-20T21:48:14.544Z,92226.81
2022-11-20T21:50:43.680Z,92999.00
2022-11-20T21:53:12.455Z,93513.91
2022-11-20T21:55:41.528Z,94286.38
2022-11-20T21:58:12.082Z,95059.00
2022-11-20T22:00:41.632Z,95574.19
2022-11-20T22:03:10.616Z,96089.47
2022-11-20T22:05:39.457Z,97120.22
2022-11-20T22:08:08.603Z,97893.50
2022-11-20T22:10:38.058Z,98409.13
2022-11-20T22:13:32.768Z,99182.69
2022-11-20T22:16:05.282Z,100214.34
2022-11-20T22:18:34.532Z,102020.53
2022-11-20T22:21:07.718Z,102794.91
2022-11-20T22:23:37.118Z,103053.06
2022-11-20T22:26:07.474Z,103311.25
2022-11-20T22:28:37.208Z,103569.44
2022-11-20T22:31:10.935Z,103569.44
2022-11-20T22:33:44.106Z,103827.66
2022-11-20T22:36:15.278Z,104085.91
2022-11-20T22:38:49.634Z,104602.44
2022-11-20T22:41:19.697Z,104602.44
2022-11-20T22:43:49.507Z,105119.03
2022-11-20T22:46:21.750Z,105377.34
2022-11-20T22:48:52.355Z,105635.72
2022-11-20T22:51:22.740Z,105119.03
2022-11-20T22:53:53.417Z,105119.03
2022-11-20T22:56:23.362Z,104860.72
2022-11-20T22:58:53.938Z,104602.44
2022-11-20T23:01:26.261Z,104602.44
2022-11-20T23:03:57.946Z,104860.72
2022-11-20T23:06:27.830Z,104860.72
2022-11-20T23:08:57.098Z,104344.16
2022-11-20T23:11:27.996Z,104085.91
2022-11-20T23:13:59.110Z,104085.91
2022-11-20T23:16:31.384Z,103827.66
2022-11-20T23:19:01.784Z,103827.66
2022-11-20T23:21:30.451Z,104085.91
2022-11-20T23:23:59.906Z,104344.16
2022-11-20T23:26:31.424Z,104344.16
2022-11-20T23:29:01.516Z,104344.16
2022-11-20T23:31:33.640Z,104085.91
2022-11-20T23:34:04.080Z,103827.66
2022-11-20T23:36:33.555Z,103569.44
2022-11-20T23:39:02.264Z,103311.25
2022-11-20T23:41:30.872Z,103569.44
2022-11-20T23:43:59.897Z,103569.44
2022-11-20T23:46:28.536Z,103827.66
2022-11-20T23:48:59.042Z,104085.91
2022-11-20T23:51:27.757Z,104344.16
2022-11-20T23:53:59.393Z,104344.16
2022-11-20T23:56:31.997Z,104344.16
2022-11-20T23:59:00.791Z,104344.16
